Hope Valley, Rhode Island
Current Conditions -  °F | °C
As of 8:53 PM on Saturday 25 Oct 2014 (Local Time) from KWST Reporting Station
Overcast Overcast  
Wind Chill: 60°   Ceiling: 8000
Heat Index: 60°   Visibility: 10mi
Dew Point: 50°   Wind: 7mph
Humidity: 69%   Direction: 210°SSW
Pressure: 29.61"   Gusts: NA
Location:  41.51°N, 71.71°W
Report Text: KWST 260053Z AUTO 21006KT 10SM BKN080 OVC095 16/10 A2961 RMK AO2 SLP027 T01560100
Loading
Personal Weather Stations






























Interactive Weather Map
Tropical Storm Tracking
New forecast layout! Learn more

10-Day Weather Forecast

Advertisements
Track Severe Weather on mobile